Time;durP1;ratioP1;P1;durP2;ratioP2;P2;SDS_P1;SDS_P2;PMS_P1;PMS_P2;Temp;Humidity;BMP_temperature;BMP_pressure;BME280_temperature;BME280_humidity;BME280_pressure;Samples;Min_cycle;Max_cycle;Signal;HPM_P1;HPM_P2
2023/12/25 00:01:02;;;;;;;6.45;3.20;;;;;;;-148.88;100.00;-17125.47;5064038;28;20071;-85
2023/12/25 00:03:28;;;;;;;6.32;3.28;;;;;;;-148.88;100.00;-17125.47;5061314;28;20024;-85
2023/12/25 00:05:53;;;;;;;8.60;3.45;;;;;;;-148.88;100.00;-17125.47;5039526;28;20044;-85
2023/12/25 00:08:18;;;;;;;7.20;3.10;;;;;;;-148.88;100.00;-17125.47;5059292;28;20017;-85
2023/12/25 00:10:44;;;;;;;7.93;2.97;;;;;;;-148.88;100.00;-17125.47;5041401;28;20487;-85
2023/12/25 00:13:09;;;;;;;7.10;2.75;;;;;;;-148.88;100.00;-17125.47;5041356;28;20032;-86
2023/12/25 00:18:02;;;;;;;5.93;2.90;;;;;;;-148.88;100.00;-17125.47;5037594;28;20053;-85
2023/12/25 00:20:27;;;;;;;7.65;3.15;;;;;;;-148.88;100.00;-17125.47;5039880;28;20055;-85
2023/12/25 00:22:53;;;;;;;8.45;3.20;;;;;;;-148.88;100.00;-17125.47;5021344;28;20052;-85
2023/12/25 00:25:18;;;;;;;7.05;3.63;;;;;;;-148.88;100.00;-17125.47;5024725;28;20021;-85
2023/12/25 00:27:44;;;;;;;8.15;3.97;;;;;;;-148.88;100.00;-17125.47;5041318;28;20040;-85
2023/12/25 00:30:16;;;;;;;6.13;4.00;;;;;;;-148.88;100.00;-17125.47;5029291;28;20025;-85
2023/12/25 00:32:54;;;;;;;5.65;3.70;;;;;;;-148.88;100.00;-17125.47;5048677;28;20425;-85
2023/12/25 00:35:20;;;;;;;8.35;3.88;;;;;;;-148.88;100.00;-17125.47;5043182;28;20049;-85
2023/12/25 00:37:45;;;;;;;6.82;3.42;;;;;;;-148.88;100.00;-17125.47;5021950;28;20032;-84
2023/12/25 00:40:11;;;;;;;7.35;3.20;;;;;;;-148.88;100.00;-17125.47;5039294;28;20022;-84
2023/12/25 00:42:36;;;;;;;6.93;3.33;;;;;;;-148.88;100.00;-17125.47;5022388;28;20076;-84
2023/12/25 00:45:02;;;;;;;5.50;2.97;;;;;;;-148.88;100.00;-17125.47;5026040;28;20018;-85
2023/12/25 00:47:27;;;;;;;8.43;3.30;;;;;;;-148.88;100.00;-17125.47;5026772;28;20495;-84
2023/12/25 00:49:53;;;;;;;5.03;3.38;;;;;;;-148.88;100.00;-17125.47;5025430;28;20052;-84
2023/12/25 00:52:19;;;;;;;5.30;3.38;;;;;;;-148.88;100.00;-17125.47;5026038;28;20021;-84
2023/12/25 00:54:45;;;;;;;5.60;2.80;;;;;;;-148.88;100.00;-17125.47;5023400;28;20448;-84
2023/12/25 00:57:10;;;;;;;6.18;3.33;;;;;;;-148.88;100.00;-17125.47;5025453;28;20028;-84
2023/12/25 00:59:36;;;;;;;5.20;3.25;;;;;;;-148.88;100.00;-17125.47;5043618;28;20047;-84
2023/12/25 01:02:01;;;;;;;4.75;3.20;;;;;;;-148.88;100.00;-17125.47;5025306;28;20033;-84
2023/12/25 01:04:26;;;;;;;5.88;2.70;;;;;;;-148.88;100.00;-17125.47;5043819;28;20029;-84
2023/12/25 01:06:55;;;;;;;6.13;3.08;;;;;;;-148.88;100.00;-17125.47;5043990;28;20025;-83
2023/12/25 01:09:20;;;;;;;5.10;2.63;;;;;;;-148.88;100.00;-17125.47;5025791;28;20100;-85
2023/12/25 01:11:46;;;;;;;3.28;2.25;;;;;;;-148.88;100.00;-17125.47;5044080;28;20054;-85
2023/12/25 01:14:14;;;;;;;4.47;2.35;;;;;;;-148.88;100.00;-17125.47;5022369;28;20052;-84
2023/12/25 01:16:39;;;;;;;4.40;1.70;;;;;;;-148.88;100.00;-17125.47;5039736;28;20026;-84
2023/12/25 01:19:05;;;;;;;3.22;1.83;;;;;;;-148.88;100.00;-17125.47;5041202;28;20052;-85
2023/12/25 01:21:32;;;;;;;3.90;1.33;;;;;;;-148.88;100.00;-17125.47;5042129;28;20029;-85
2023/12/25 01:23:57;;;;;;;1.90;1.13;;;;;;;-148.88;100.00;-17125.47;5024819;28;20026;-85
2023/12/25 01:26:23;;;;;;;1.92;0.90;;;;;;;-148.88;100.00;-17125.47;5041521;28;20036;-84
2023/12/25 01:28:48;;;;;;;1.77;1.02;;;;;;;-148.88;100.00;-17125.47;5042503;28;20060;-85
2023/12/25 01:31:14;;;;;;;2.63;0.90;;;;;;;-148.88;100.00;-17125.47;5041407;28;20026;-85
2023/12/25 01:33:39;;;;;;;2.58;1.00;;;;;;;-148.88;100.00;-17125.47;5041659;28;20032;-85
2023/12/25 01:36:05;;;;;;;1.70;0.82;;;;;;;-148.88;100.00;-17125.47;5023925;28;20053;-85
2023/12/25 01:38:31;;;;;;;2.60;1.08;;;;;;;-148.88;100.00;-17125.47;5042495;28;20076;-85
2023/12/25 01:40:56;;;;;;;2.30;0.80;;;;;;;-148.88;100.00;-17125.47;5044635;28;20032;-85
2023/12/25 01:43:22;;;;;;;2.63;0.90;;;;;;;-148.88;100.00;-17125.47;5045309;28;20021;-85
2023/12/25 01:45:47;;;;;;;2.10;1.00;;;;;;;-148.88;100.00;-17125.47;5045873;28;20026;-84
2023/12/25 01:48:13;;;;;;;2.50;0.82;;;;;;;-148.88;100.00;-17125.47;5027403;28;20036;-84
2023/12/25 01:50:39;;;;;;;1.83;0.68;;;;;;;-148.88;100.00;-17125.47;5038202;28;20025;-85
2023/12/25 01:53:06;;;;;;;2.13;0.85;;;;;;;-148.88;100.00;-17125.47;5039648;28;20043;-84
2023/12/25 01:55:32;;;;;;;1.85;0.60;;;;;;;-148.88;100.00;-17125.47;5024244;28;20033;-85
2023/12/25 01:57:58;;;;;;;1.77;0.70;;;;;;;-148.88;100.00;-17125.47;5043943;28;20036;-85
2023/12/25 02:00:23;;;;;;;3.17;0.88;;;;;;;-148.88;100.00;-17125.47;5044336;28;20025;-84
2023/12/25 02:02:49;;;;;;;1.42;0.70;;;;;;;-148.88;100.00;-17125.47;5043724;28;20109;-84
2023/12/25 02:05:15;;;;;;;2.33;0.90;;;;;;;-148.88;100.00;-17125.47;5025414;28;20021;-84
2023/12/25 02:07:43;;;;;;;3.13;1.02;;;;;;;-148.88;100.00;-17125.47;5023907;28;20021;-84
2023/12/25 02:10:09;;;;;;;1.98;1.00;;;;;;;-148.88;100.00;-17125.47;5023570;28;20029;-84
2023/12/25 02:12:35;;;;;;;3.53;1.00;;;;;;;-148.88;100.00;-17125.47;5023646;28;20036;-84
2023/12/25 02:15:02;;;;;;;4.53;1.00;;;;;;;-148.88;100.00;-17125.47;5023946;28;20083;-85
2023/12/25 02:17:29;;;;;;;3.08;1.25;;;;;;;-148.88;100.00;-17125.47;5041005;28;20037;-84
2023/12/25 02:19:56;;;;;;;3.78;1.30;;;;;;;-148.88;100.00;-17125.47;5023847;28;20124;-84
2023/12/25 02:22:21;;;;;;;3.17;1.00;;;;;;;-148.88;100.00;-17125.47;5041751;28;20480;-84
2023/12/25 02:25:01;;;;;;;3.90;1.27;;;;;;;-148.88;100.00;-17125.47;5040093;28;20021;-84
2023/12/25 02:27:27;;;;;;;3.45;1.10;;;;;;;-148.88;100.00;-17125.47;5020843;28;20472;-84
2023/12/25 02:29:52;;;;;;;5.75;1.48;;;;;;;-148.88;100.00;-17125.47;5038901;28;20028;-84
2023/12/25 02:32:17;;;;;;;2.63;1.33;;;;;;;-148.88;100.00;-17125.47;5022375;28;20036;-84
2023/12/25 02:34:44;;;;;;;4.97;1.10;;;;;;;-148.88;100.00;-17125.47;5022434;28;20021;-84
2023/12/25 02:37:10;;;;;;;2.92;1.00;;;;;;;-148.88;100.00;-17125.47;5023283;28;20037;-84
2023/12/25 02:39:35;;;;;;;4.15;1.48;;;;;;;-148.88;100.00;-17125.47;5022960;28;20026;-84
2023/12/25 02:42:03;;;;;;;4.35;1.63;;;;;;;-148.88;100.00;-17125.47;5022618;28;20028;-84
2023/12/25 02:44:28;;;;;;;3.53;1.40;;;;;;;-148.88;100.00;-17125.47;5038811;28;20022;-84
2023/12/25 02:46:54;;;;;;;4.28;1.70;;;;;;;-148.88;100.00;-17125.47;5023126;28;20029;-84
2023/12/25 02:49:19;;;;;;;3.97;1.70;;;;;;;-148.88;100.00;-17125.47;5022489;28;20104;-84
2023/12/25 02:51:44;;;;;;;6.20;1.60;;;;;;;-148.88;100.00;-17125.47;5021808;28;20116;-84
2023/12/25 02:54:10;;;;;;;6.63;1.58;;;;;;;-148.88;100.00;-17125.47;5040033;28;20096;-84
2023/12/25 02:56:35;;;;;;;3.90;1.70;;;;;;;-148.88;100.00;-17125.47;5023430;28;20029;-84
2023/12/25 02:59:00;;;;;;;5.38;1.50;;;;;;;-148.88;100.00;-17125.47;5023480;28;20060;-84
2023/12/25 03:01:26;;;;;;;4.78;1.70;;;;;;;-148.88;100.00;-17125.47;5039058;28;20025;-84
2023/12/25 03:03:51;;;;;;;3.17;1.25;;;;;;;-148.88;100.00;-17125.47;5020845;28;20089;-84
2023/12/25 03:06:17;;;;;;;3.85;1.38;;;;;;;-148.88;100.00;-17125.47;5020982;28;20395;-84
2023/12/25 03:08:42;;;;;;;3.63;1.30;;;;;;;-148.88;100.00;-17125.47;5039088;28;20124;-84
2023/12/25 03:11:07;;;;;;;5.50;1.65;;;;;;;-148.88;100.00;-17125.47;5039743;28;20025;-84
2023/12/25 03:13:34;;;;;;;4.35;1.42;;;;;;;-148.88;100.00;-17125.47;5038934;28;20033;-84
2023/12/25 03:16:04;;;;;;;5.95;1.50;;;;;;;-148.88;100.00;-17125.47;5023011;28;20029;-84
2023/12/25 03:18:29;;;;;;;4.10;1.70;;;;;;;-148.88;100.00;-17125.47;5022920;28;20056;-84
2023/12/25 03:20:55;;;;;;;4.43;1.23;;;;;;;-148.88;100.00;-17125.47;5039124;28;20433;-84
2023/12/25 03:23:20;;;;;;;4.40;1.20;;;;;;;-148.88;100.00;-17125.47;5038658;28;20025;-84
2023/12/25 03:25:45;;;;;;;4.07;1.23;;;;;;;-148.88;100.00;-17125.47;5040057;28;20033;-84
2023/12/25 03:28:11;;;;;;;7.05;1.70;;;;;;;-148.88;100.00;-17125.47;5038767;28;20041;-84
2023/12/25 03:30:36;;;;;;;4.68;1.35;;;;;;;-148.88;100.00;-17125.47;5039505;28;20029;-84
2023/12/25 03:33:02;;;;;;;7.18;1.40;;;;;;;-148.88;100.00;-17125.47;5039439;28;20081;-84
2023/12/25 03:35:27;;;;;;;3.15;1.20;;;;;;;-148.88;100.00;-17125.47;5040290;28;20037;-84
2023/12/25 03:37:52;;;;;;;3.88;1.15;;;;;;;-148.88;100.00;-17125.47;5018942;28;20499;-83
2023/12/25 03:40:18;;;;;;;3.70;1.25;;;;;;;-148.88;100.00;-17125.47;5037418;28;20483;-83
2023/12/25 03:42:43;;;;;;;4.03;1.23;;;;;;;-148.88;100.00;-17125.47;5019859;28;20216;-83
2023/12/25 03:45:08;;;;;;;5.03;1.52;;;;;;;-148.88;100.00;-17125.47;5019724;28;20025;-84
2023/12/25 03:47:34;;;;;;;4.47;1.30;;;;;;;-148.88;100.00;-17125.47;5039165;28;20025;-84
2023/12/25 03:49:59;;;;;;;3.53;1.00;;;;;;;-148.88;100.00;-17125.47;5039210;28;20113;-84
2023/12/25 03:52:24;;;;;;;4.88;1.13;;;;;;;-148.88;100.00;-17125.47;5020922;28;20021;-84
2023/12/25 03:54:50;;;;;;;6.22;1.50;;;;;;;-148.88;100.00;-17125.47;5038740;28;20068;-84
2023/12/25 03:57:15;;;;;;;4.20;1.30;;;;;;;-148.88;100.00;-17125.47;5019930;28;20040;-84
2023/12/25 03:59:40;;;;;;;4.07;1.20;;;;;;;-148.88;100.00;-17125.47;5037786;28;20072;-84
2023/12/25 04:02:06;;;;;;;4.75;1.52;;;;;;;-148.88;100.00;-17125.47;5038119;28;20021;-83
2023/12/25 04:04:31;;;;;;;3.88;1.20;;;;;;;-148.88;100.00;-17125.47;5020046;28;20021;-83
2023/12/25 04:06:57;;;;;;;5.65;1.60;;;;;;;-148.88;100.00;-17125.47;5020835;28;20033;-83
2023/12/25 04:09:23;;;;;;;6.47;1.67;;;;;;;-148.88;100.00;-17125.47;5039133;28;20464;-83
2023/12/25 04:11:48;;;;;;;7.35;1.65;;;;;;;-148.88;100.00;-17125.47;5038474;28;20029;-83
2023/12/25 04:14:13;;;;;;;4.60;1.50;;;;;;;-148.88;100.00;-17125.47;5018490;28;20022;-83
2023/12/25 04:16:39;;;;;;;4.88;1.40;;;;;;;-148.88;100.00;-17125.47;5019288;28;20058;-83
2023/12/25 04:19:04;;;;;;;5.30;1.50;;;;;;;-148.88;100.00;-17125.47;5021810;28;20032;-83
2023/12/25 04:21:31;;;;;;;6.70;1.83;;;;;;;-148.88;100.00;-17125.47;5024228;28;20037;-83
2023/12/25 04:23:57;;;;;;;4.53;1.60;;;;;;;-148.88;100.00;-17125.47;5024132;28;20018;-83
2023/12/25 04:26:23;;;;;;;7.72;1.63;;;;;;;-148.88;100.00;-17125.47;5023875;28;20025;-84
2023/12/25 04:28:49;;;;;;;4.93;1.50;;;;;;;-148.88;100.00;-17125.47;5041655;28;20021;-83
2023/12/25 04:31:15;;;;;;;7.30;1.65;;;;;;;-148.88;100.00;-17125.47;5041872;28;20103;-83
2023/12/25 04:33:41;;;;;;;4.60;1.52;;;;;;;-148.88;100.00;-17125.47;5024266;28;20506;-83
2023/12/25 04:36:07;;;;;;;5.55;1.52;;;;;;;-148.88;100.00;-17125.47;5043905;28;20033;-84
2023/12/25 04:38:32;;;;;;;5.63;2.25;;;;;;;-148.88;100.00;-17125.47;5027834;28;20029;-84
2023/12/25 04:40:59;;;;;;;6.28;1.73;;;;;;;-148.88;100.00;-17125.47;5026708;28;20040;-84
2023/12/25 04:43:24;;;;;;;5.20;1.83;;;;;;;-148.88;100.00;-17125.47;5026845;28;20026;-83
2023/12/25 04:45:50;;;;;;;5.72;1.70;;;;;;;-148.88;100.00;-17125.47;5025771;28;20048;-84
2023/12/25 04:48:15;;;;;;;4.88;1.60;;;;;;;-148.88;100.00;-17125.47;5025919;28;20243;-83
2023/12/25 04:50:41;;;;;;;7.88;2.05;;;;;;;-148.88;100.00;-17125.47;5023352;28;20038;-84
2023/12/25 04:53:06;;;;;;;4.65;1.33;;;;;;;-148.88;100.00;-17125.47;5022666;28;20377;-83
2023/12/25 04:55:35;;;;;;;4.47;1.77;;;;;;;-148.88;100.00;-17125.47;5042259;28;20105;-84
2023/12/25 04:58:00;;;;;;;4.70;1.48;;;;;;;-148.88;100.00;-17125.47;5042574;28;20036;-84
2023/12/25 05:00:25;;;;;;;6.03;1.92;;;;;;;-148.88;100.00;-17125.47;5025543;28;20025;-84
2023/12/25 05:02:51;;;;;;;5.00;1.55;;;;;;;-148.88;100.00;-17125.47;5044888;28;20033;-84
2023/12/25 05:05:16;;;;;;;5.13;1.63;;;;;;;-148.88;100.00;-17125.47;5024879;28;20020;-83
2023/12/25 05:07:41;;;;;;;3.03;0.75;;;;;;;-148.88;100.00;-17125.47;5044463;28;20062;-84
2023/12/25 05:10:07;;;;;;;7.68;1.77;;;;;;;-148.88;100.00;-17125.47;5025217;28;20071;-84
2023/12/25 05:12:33;;;;;;;4.07;0.90;;;;;;;-148.88;100.00;-17125.47;5026061;28;20068;-84
2023/12/25 05:14:58;;;;;;;6.00;1.77;;;;;;;-148.88;100.00;-17125.47;5025441;28;20032;-84
2023/12/25 05:17:25;;;;;;;5.35;1.58;;;;;;;-148.88;100.00;-17125.47;5042861;28;20116;-84
2023/12/25 05:19:51;;;;;;;3.60;1.52;;;;;;;-148.88;100.00;-17125.47;5027260;28;20029;-84
2023/12/25 05:22:16;;;;;;;4.05;1.27;;;;;;;-148.88;100.00;-17125.47;5044811;28;20064;-84
2023/12/25 05:24:42;;;;;;;3.17;0.93;;;;;;;-148.88;100.00;-17125.47;5027597;28;20030;-84
2023/12/25 05:27:08;;;;;;;5.40;1.45;;;;;;;-148.88;100.00;-17125.47;5040603;28;20041;-84
2023/12/25 05:29:33;;;;;;;6.35;1.63;;;;;;;-148.88;100.00;-17125.47;5040778;28;20029;-83
2023/12/25 05:31:59;;;;;;;6.80;1.40;;;;;;;-148.88;100.00;-17125.47;5041529;28;20034;-84
2023/12/25 05:34:27;;;;;;;5.95;1.35;;;;;;;-148.88;100.00;-17125.47;5044324;28;20029;-84
2023/12/25 05:36:53;;;;;;;3.70;1.15;;;;;;;-148.88;100.00;-17125.47;5044165;28;20029;-84
2023/12/25 05:39:18;;;;;;;4.78;1.30;;;;;;;-148.88;100.00;-17125.47;5044462;28;20048;-84
2023/12/25 05:41:44;;;;;;;5.25;1.58;;;;;;;-148.88;100.00;-17125.47;5043017;28;20026;-84
2023/12/25 05:44:09;;;;;;;3.75;0.55;;;;;;;-148.88;100.00;-17125.47;5042593;28;20472;-84
2023/12/25 05:46:36;;;;;;;5.07;1.15;;;;;;;-148.88;100.00;-17125.47;5024675;28;20028;-84
2023/12/25 05:49:04;;;;;;;4.88;1.70;;;;;;;-148.88;100.00;-17125.47;5042826;28;20476;-84
2023/12/25 05:51:29;;;;;;;5.82;1.50;;;;;;;-148.88;100.00;-17125.47;5042277;28;20035;-84
2023/12/25 05:53:55;;;;;;;6.20;1.40;;;;;;;-148.88;100.00;-17125.47;5023917;28;20041;-83
2023/12/25 05:56:20;;;;;;;4.90;1.33;;;;;;;-148.88;100.00;-17125.47;5028096;28;20031;-83
2023/12/25 05:58:46;;;;;;;5.18;1.40;;;;;;;-148.88;100.00;-17125.47;5044512;28;20504;-84
2023/12/25 06:01:13;;;;;;;3.85;1.02;;;;;;;-148.88;100.00;-17125.47;5041997;28;20453;-83
2023/12/25 06:03:39;;;;;;;11.55;1.55;;;;;;;-148.88;100.00;-17125.47;5037599;28;20036;-84
2023/12/25 06:06:04;;;;;;;2.65;0.60;;;;;;;-148.88;100.00;-17125.47;5037302;28;20452;-84
2023/12/25 06:08:30;;;;;;;5.57;1.00;;;;;;;-148.88;100.00;-17125.47;5038909;28;20036;-83
2023/12/25 06:10:57;;;;;;;3.72;1.33;;;;;;;-148.88;100.00;-17125.47;5040318;28;20026;-85
2023/12/25 06:13:22;;;;;;;2.45;1.05;;;;;;;-148.88;100.00;-17125.47;5039278;28;20033;-89
2023/12/25 06:15:48;;;;;;;3.63;1.08;;;;;;;-148.88;100.00;-17125.47;5021812;28;20025;-85
2023/12/25 06:18:14;;;;;;;5.45;1.40;;;;;;;-148.88;100.00;-17125.47;5023233;28;20484;-85
2023/12/25 06:20:40;;;;;;;3.70;1.30;;;;;;;-148.88;100.00;-17125.47;5041210;28;20034;-85
2023/12/25 06:23:05;;;;;;;5.35;1.27;;;;;;;-148.88;100.00;-17125.47;5041885;28;20021;-85
2023/12/25 06:25:31;;;;;;;3.75;1.15;;;;;;;-148.88;100.00;-17125.47;5040132;28;20033;-85
2023/12/25 06:27:56;;;;;;;3.28;0.60;;;;;;;-148.88;100.00;-17125.47;5040305;28;20465;-85
2023/12/25 06:30:21;;;;;;;5.85;1.25;;;;;;;-148.88;100.00;-17125.47;5037770;28;20028;-84
2023/12/25 06:32:47;;;;;;;3.65;0.57;;;;;;;-148.88;100.00;-17125.47;5018882;28;20120;-85
2023/12/25 06:35:13;;;;;;;2.83;0.90;;;;;;;-148.88;100.00;-17125.47;5023098;28;20400;-85
2023/12/25 06:37:38;;;;;;;2.97;0.95;;;;;;;-148.88;100.00;-17125.47;5021218;28;20022;-85
2023/12/25 06:40:05;;;;;;;4.53;1.27;;;;;;;-148.88;100.00;-17125.47;5020092;28;20088;-85
2023/12/25 06:42:30;;;;;;;5.28;1.67;;;;;;;-148.88;100.00;-17125.47;5020150;28;20029;-85
2023/12/25 06:44:56;;;;;;;6.57;1.35;;;;;;;-148.88;100.00;-17125.47;5040065;28;20025;-85
2023/12/25 06:47:21;;;;;;;5.00;1.13;;;;;;;-148.88;100.00;-17125.47;5039613;28;20044;-85
2023/12/25 06:49:47;;;;;;;8.15;2.30;;;;;;;-148.88;100.00;-17125.47;5039482;28;20025;-85
2023/12/25 06:52:12;;;;;;;7.55;2.20;;;;;;;-148.88;100.00;-17125.47;5022316;28;20084;-85
2023/12/25 06:54:40;;;;;;;8.25;2.40;;;;;;;-148.88;100.00;-17125.47;5021566;28;20029;-83
2023/12/25 06:57:05;;;;;;;9.15;2.90;;;;;;;-148.88;100.00;-17125.47;5024578;28;20070;-83
2023/12/25 06:59:31;;;;;;;10.43;2.70;;;;;;;-148.88;100.00;-17125.47;5042691;28;20036;-83
2023/12/25 07:01:56;;;;;;;9.18;3.03;;;;;;;-148.88;100.00;-17125.47;5023591;28;20034;-83
2023/12/25 07:04:22;;;;;;;6.43;2.53;;;;;;;-148.88;100.00;-17125.47;5041465;28;20104;-83
2023/12/25 07:06:48;;;;;;;3.28;1.40;;;;;;;-148.88;100.00;-17125.47;5041728;28;20076;-83
2023/12/25 07:09:16;;;;;;;9.35;2.72;;;;;;;-148.88;100.00;-17125.47;5023807;28;20113;-83
2023/12/25 07:11:42;;;;;;;9.93;2.97;;;;;;;-148.88;100.00;-17125.47;5023292;28;20104;-83
2023/12/25 07:14:08;;;;;;;6.68;2.38;;;;;;;-148.88;100.00;-17125.47;5038195;28;20057;-83
2023/12/25 07:16:33;;;;;;;9.82;2.60;;;;;;;-148.88;100.00;-17125.47;5036239;28;20057;-83
2023/12/25 07:18:58;;;;;;;9.82;1.40;;;;;;;-148.88;100.00;-17125.47;5019857;28;20021;-83
2023/12/25 07:21:24;;;;;;;6.65;2.60;;;;;;;-148.88;100.00;-17125.47;5042472;28;20031;-83
2023/12/25 07:23:49;;;;;;;9.38;2.35;;;;;;;-148.88;100.00;-17125.47;5025019;28;20028;-83
2023/12/25 07:26:18;;;;;;;8.10;2.20;;;;;;;-148.88;100.00;-17125.47;5042077;28;20074;-82
2023/12/25 07:28:44;;;;;;;11.02;2.85;;;;;;;-148.88;100.00;-17125.47;5023705;28;20486;-83
2023/12/25 07:31:10;;;;;;;10.00;2.67;;;;;;;-148.88;100.00;-17125.47;5041650;28;20021;-83
2023/12/25 07:33:36;;;;;;;7.57;2.25;;;;;;;-148.88;100.00;-17125.47;5042446;28;20025;-83
2023/12/25 07:36:02;;;;;;;6.68;2.15;;;;;;;-148.88;100.00;-17125.47;5041069;28;20553;-84
2023/12/25 07:38:27;;;;;;;8.25;2.45;;;;;;;-148.88;100.00;-17125.47;5024238;28;20029;-84
2023/12/25 07:40:53;;;;;;;8.23;2.20;;;;;;;-148.88;100.00;-17125.47;5040993;28;20041;-84
2023/12/25 07:43:18;;;;;;;7.40;1.90;;;;;;;-148.88;100.00;-17125.47;5024909;28;20017;-83
2023/12/25 07:45:44;;;;;;;3.53;1.10;;;;;;;-148.88;100.00;-17125.47;5043074;28;20092;-83
2023/12/25 07:48:09;;;;;;;11.93;2.20;;;;;;;-148.88;100.00;-17125.47;5041609;28;20115;-83
2023/12/25 07:50:35;;;;;;;6.88;2.33;;;;;;;-148.88;100.00;-17125.47;5019894;28;20103;-83
2023/12/25 07:53:00;;;;;;;7.80;2.08;;;;;;;-148.88;100.00;-17125.47;5019298;28;20164;-83
2023/12/25 07:55:26;;;;;;;11.48;2.50;;;;;;;-148.88;100.00;-17125.47;5042182;28;20118;-84
2023/12/25 07:57:51;;;;;;;7.70;2.28;;;;;;;-148.88;100.00;-17125.47;5043590;28;20056;-83
2023/12/25 08:00:17;;;;;;;8.52;2.05;;;;;;;-148.88;100.00;-17125.47;5026109;28;20025;-83
2023/12/25 08:02:42;;;;;;;6.43;2.47;;;;;;;-148.88;100.00;-17125.47;5026190;28;20030;-83
2023/12/25 08:05:08;;;;;;;8.93;1.60;;;;;;;-148.88;100.00;-17125.47;5044267;28;20021;-83
2023/12/25 08:07:33;;;;;;;6.65;2.63;;;;;;;-148.88;100.00;-17125.47;5043860;28;20021;-83
2023/12/25 08:09:58;;;;;;;6.00;2.00;;;;;;;-148.88;100.00;-17125.47;5044039;28;20029;-83
2023/12/25 08:12:24;;;;;;;9.63;2.40;;;;;;;-148.88;100.00;-17125.47;5045405;28;20104;-83
2023/12/25 08:14:49;;;;;;;9.73;2.65;;;;;;;-148.88;100.00;-17125.47;5044427;28;20026;-83
2023/12/25 08:17:16;;;;;;;6.75;2.25;;;;;;;-148.88;100.00;-17125.47;5045468;28;20064;-83
2023/12/25 08:19:42;;;;;;;6.75;2.47;;;;;;;-148.88;100.00;-17125.47;5046686;28;20025;-83
2023/12/25 08:22:07;;;;;;;8.90;2.50;;;;;;;-148.88;100.00;-17125.47;5046970;28;20033;-85
2023/12/25 08:24:35;;;;;;;11.55;3.17;;;;;;;-148.88;100.00;-17125.47;5031847;28;20013;-85
2023/12/25 08:27:00;;;;;;;10.05;3.00;;;;;;;-148.88;100.00;-17125.47;5029077;28;20025;-84
2023/12/25 08:29:25;;;;;;;11.07;3.05;;;;;;;-148.88;100.00;-17125.47;5047684;28;20056;-84
2023/12/25 08:31:51;;;;;;;8.88;2.55;;;;;;;-148.88;100.00;-17125.47;5048134;28;20028;-83
2023/12/25 08:34:16;;;;;;;9.18;2.60;;;;;;;-148.88;100.00;-17125.47;5047964;28;20036;-83
2023/12/25 08:36:42;;;;;;;5.55;1.90;;;;;;;-148.88;100.00;-17125.47;5029823;28;20029;-84
2023/12/25 08:39:08;;;;;;;12.00;2.88;;;;;;;-148.88;100.00;-17125.47;5048491;28;20033;-83
2023/12/25 08:41:34;;;;;;;9.60;2.83;;;;;;;-148.88;100.00;-17125.47;5031036;28;20031;-83
2023/12/25 08:43:59;;;;;;;10.00;2.63;;;;;;;-148.88;100.00;-17125.47;5030261;28;20025;-83
2023/12/25 08:46:25;;;;;;;7.25;2.33;;;;;;;-148.88;100.00;-17125.47;5030901;28;20101;-84
2023/12/25 08:48:50;;;;;;;11.32;2.90;;;;;;;-148.88;100.00;-17125.47;5048646;28;20476;-83
2023/12/25 08:51:16;;;;;;;7.60;2.63;;;;;;;-148.88;100.00;-17125.47;5030123;28;20021;-83
2023/12/25 08:53:42;;;;;;;11.93;2.30;;;;;;;-148.88;100.00;-17125.47;5048118;28;20026;-83
2023/12/25 08:56:08;;;;;;;8.68;2.20;;;;;;;-148.88;100.00;-17125.47;5031240;28;20060;-83
2023/12/25 08:58:35;;;;;;;7.60;2.13;;;;;;;-148.88;100.00;-17125.47;5048476;28;20022;-83
2023/12/25 09:01:00;;;;;;;8.07;2.30;;;;;;;-148.88;100.00;-17125.47;5030946;28;20033;-85
2023/12/25 09:03:26;;;;;;;9.60;2.40;;;;;;;-148.88;100.00;-17125.47;5031140;28;20029;-84
2023/12/25 09:05:51;;;;;;;7.78;3.00;;;;;;;-148.88;100.00;-17125.47;5031208;28;20029;-83
2023/12/25 09:08:17;;;;;;;11.57;2.72;;;;;;;-148.88;100.00;-17125.47;5048824;28;20100;-83
2023/12/25 09:10:42;;;;;;;7.95;2.80;;;;;;;-148.88;100.00;-17125.47;5030810;28;20025;-84
2023/12/25 09:13:08;;;;;;;7.93;2.90;;;;;;;-148.88;100.00;-17125.47;5030357;28;20093;-83
2023/12/25 09:15:33;;;;;;;9.65;3.05;;;;;;;-148.88;100.00;-17125.47;5047989;28;20030;-84
2023/12/25 09:17:59;;;;;;;8.38;2.88;;;;;;;-148.88;100.00;-17125.47;5048900;28;20104;-84
2023/12/25 09:20:24;;;;;;;10.73;2.85;;;;;;;-148.88;100.00;-17125.47;5048133;28;20017;-83
2023/12/25 09:22:49;;;;;;;7.32;2.03;;;;;;;-148.88;100.00;-17125.47;5030117;28;20084;-84
2023/12/25 09:25:15;;;;;;;8.68;2.60;;;;;;;-148.88;100.00;-17125.47;5047865;28;20024;-84
2023/12/25 09:27:40;;;;;;;8.85;2.60;;;;;;;-148.88;100.00;-17125.47;5048251;28;20029;-84
2023/12/25 09:30:08;;;;;;;6.95;2.55;;;;;;;-148.88;100.00;-17125.47;5030261;28;20033;-84
2023/12/25 09:32:33;;;;;;;13.57;2.70;;;;;;;-148.88;100.00;-17125.47;5030431;28;20009;-83
2023/12/25 09:34:59;;;;;;;8.73;2.40;;;;;;;-148.88;100.00;-17125.47;5049058;28;20036;-85
2023/12/25 09:37:28;;;;;;;10.32;2.67;;;;;;;-148.88;100.00;-17125.47;5048566;28;20028;-85
2023/12/25 09:39:53;;;;;;;6.47;2.72;;;;;;;-148.88;100.00;-17125.47;5031014;28;20430;-84
2023/12/25 09:42:21;;;;;;;9.50;2.65;;;;;;;-148.88;100.00;-17125.47;5047892;28;20094;-83
2023/12/25 09:44:50;;;;;;;10.27;3.40;;;;;;;-148.88;100.00;-17125.47;5047212;28;20021;-83
2023/12/25 09:47:16;;;;;;;9.75;3.30;;;;;;;-148.88;100.00;-17125.47;5047883;28;20030;-83
2023/12/25 09:49:45;;;;;;;11.32;3.28;;;;;;;-148.88;100.00;-17125.47;5047381;28;20484;-84
2023/12/25 09:52:12;;;;;;;16.10;3.40;;;;;;;-148.88;100.00;-17125.47;5029523;28;20056;-83
2023/12/25 09:54:38;;;;;;;8.65;2.92;;;;;;;-148.88;100.00;-17125.47;5030084;28;20021;-83
2023/12/25 09:57:05;;;;;;;10.75;3.22;;;;;;;-148.88;100.00;-17125.47;5028791;28;20025;-83
2023/12/25 09:59:31;;;;;;;10.65;3.35;;;;;;;-148.88;100.00;-17125.47;5041105;28;20028;-84
2023/12/25 10:02:00;;;;;;;13.40;3.75;;;;;;;-148.88;100.00;-17125.47;5024225;28;20021;-84
2023/12/25 10:04:29;;;;;;;7.28;3.25;;;;;;;-148.88;100.00;-17125.47;5042284;28;20113;-84
2023/12/25 10:06:54;;;;;;;10.48;3.25;;;;;;;-148.88;100.00;-17125.47;5025406;28;20077;-85
2023/12/25 10:09:20;;;;;;;9.13;2.72;;;;;;;-148.88;100.00;-17125.47;5027106;28;20017;-85
2023/12/25 10:11:45;;;;;;;12.85;3.30;;;;;;;-148.88;100.00;-17125.47;5028062;28;20189;-85
2023/12/25 10:14:10;;;;;;;7.25;2.88;;;;;;;-148.88;100.00;-17125.47;5026503;28;20021;-84
2023/12/25 10:16:36;;;;;;;10.77;2.70;;;;;;;-148.88;100.00;-17125.47;5021853;28;20030;-84
2023/12/25 10:19:01;;;;;;;8.73;2.92;;;;;;;-148.88;100.00;-17125.47;5041445;28;20095;-84
2023/12/25 10:21:26;;;;;;;11.38;3.60;;;;;;;-148.88;100.00;-17125.47;5042883;28;20104;-85
2023/12/25 10:23:52;;;;;;;9.23;3.47;;;;;;;-148.88;100.00;-17125.47;5026558;28;20040;-84
2023/12/25 10:26:35;;;;;;;12.50;3.78;;;;;;;-148.88;100.00;-17125.47;5026752;28;20028;-85
2023/12/25 10:29:11;;;;;;;8.77;3.28;;;;;;;-148.88;100.00;-17125.47;5044801;28;20029;-84
2023/12/25 10:31:43;;;;;;;8.48;3.20;;;;;;;-148.88;100.00;-17125.47;5027314;28;20507;-84
2023/12/25 10:34:09;;;;;;;9.20;3.45;;;;;;;-148.88;100.00;-17125.47;5044187;28;20041;-84
2023/12/25 10:36:34;;;;;;;10.07;4.05;;;;;;;-148.88;100.00;-17125.47;5043633;28;20021;-85
2023/12/25 10:39:00;;;;;;;10.88;4.00;;;;;;;-148.88;100.00;-17125.47;5043669;28;20028;-84
2023/12/25 10:41:33;;;;;;;11.15;3.72;;;;;;;-148.88;100.00;-17125.47;5042747;28;20460;-84
2023/12/25 10:44:03;;;;;;;10.32;3.42;;;;;;;-148.88;100.00;-17125.47;5025777;28;20025;-84
2023/12/25 10:46:36;;;;;;;12.05;3.33;;;;;;;-148.88;100.00;-17125.47;5042686;28;20063;-84
2023/12/25 10:49:03;;;;;;;9.98;2.78;;;;;;;-148.88;100.00;-17125.47;5023102;28;20045;-84
2023/12/25 10:51:33;;;;;;;9.07;3.08;;;;;;;-148.88;100.00;-17125.47;5037068;28;20037;-84
2023/12/25 10:54:03;;;;;;;9.70;2.85;;;;;;;-148.88;100.00;-17125.47;5036408;28;20021;-84
2023/12/25 10:56:33;;;;;;;10.00;2.72;;;;;;;-148.88;100.00;-17125.47;5018880;28;20032;-84